Aeroporto :
LOGIN :

Iscrizione | Disclaimer

   EN    FR    IT 

 










Sommario :    VFR   VFR Marginale   IFR   IFR Intensivo   IFR Molto Intensivo
Visibilità : 
Base nubi : 
>= 8 km
>= 3000ft
5 / 8 km
1000 / 3000 ft
1500m / 5 km
500 / 1000 ft
800 / 1500m
200 / 500 ft
< 800m
< 200 ft
Simboli :   Temporali  Nebbia  Neve Forte  Precipitazioni Forti  Vento > 20 kt
SIGMETs :   Varie  Temporali  Ghiacco  Turbolenza  Onda orograficha  Ceneri Vulcaniche






- Altitudine del aeroporto : 6 ft
- Codice IATA : PSA


LIRP - Galileo Galilei Pisa

ULTIMO METAR :
  • 250645Z 12002KT 9999 FEW020 BKN040 09/09 Q1014 NOSIG

METARs OBSOLETI :
  • 250615Z 18001KT 9999 FEW030 BKN040 09/09 Q1015 NOSIG
  • 250545Z 11003KT 9999 BKN040 09/09 Q1015 NOSIG
  • 250515Z 13002KT 9999 BKN040 10/10 Q1015 NOSIG
  • 250445Z 10004KT 9999 SCT040 10/10 Q1015 NOSIG
  • 250415Z 09004KT 9999 SCT040 10/10 Q1016 NOSIG

TAF COR TAF LIRP
Valido dal 25 a 06 ore il 26 a 06 ore UTC


250500Z 2506/2606 11005KT 9999 SCT030
BECMG 2518/2520 23010KT
TEMPO 2603/2606 5000 RA BR BKN025



MetMap, La meteo Aeronautica in un colpo d'occhio ! - Copyright ORBIFLY Dicembre 2007 - Disclaimer

ORBIFLY MET'MAP TEAM :

Programmazione e sviluppo : Alexandra Zaïnal
Concezione : Baudouin d'Aumeries
Aiuto per la programmazione : Marc-Olivier Méhu
Supporto tecnico e logistico : Manuel Goepfert
Aiuto per la traduzione : Arnaldo La Scala

Contatto : metmap@orbifly.com




FONTI E CREDITI :

   NOAA